PWSweather.com
Personal Weather Stations
Station Observations
WESTON01
WestonSuperMareGB BS22 8RT

WestonSuperMareGB BS22 8RT

Lat: 51.351508, Lon: -2.933373

Elevation: 15

Station Type: Fine Offset WH1080

http://www.westonweather.co.uk

High Low Average
Temperature 71.0°F21.7°C 52.3°F11.3°C 61.1°F16.2°C
Dew Point 57.1°F13.9°C 41.1°F5.1°C 50.3°F10.2°C
Winds 11.0 mph 17.7 kmh Calm Calm 4.0 mph SW6.4 kmh SW
Wind Gusts 15.8 mph25.4 kmh -- 7.0 mph11.3 kmh
Humidity 87% 51% 69%
Pressure 30.15 in1021.0 mb 29.88 in1011.9 mb -
Precipitation 0.00 in0.0 mm - -
Hour Temp Dew Point Humidity Winds Wind Gusts Pressure Precip Precip Rate Daily Precip Total
12:00 AM 57.3°F14.1°C 48.7°F9.3°C 73% 1.1 mph S1.8 kmh S 3.0 mph4.8 kmh 29.91 in1012.9 mb 0.00 in0.0 mm 0.00 in0.0 mm 0.00 in0.0 mm
12:05 AM 57.3°F14.1°C 48.7°F9.3°C 73% 0.7 mph S1.1 kmh S 2.1 mph3.4 kmh 29.91 in1012.9 mb 0.00 in0.0 mm 0.00 in0.0 mm 0.00 in0.0 mm
12:10 AM 57.3°F14.1°C 48.7°F9.3°C 73% 0.3 mph S0.5 kmh S 1.8 mph2.9 kmh 29.91 in1012.9 mb 0.00 in0.0 mm 0.00 in0.0 mm 0.00 in0.0 mm
12:15 AM 57.1°F13.9°C 48.5°F9.2°C 73% 0.5 mph SE0.8 kmh SE 1.8 mph2.9 kmh 29.91 in1012.9 mb 0.00 in0.0 mm 0.00 in0.0 mm 0.00 in0.0 mm
12:20 AM 56.9°F13.8°C 48.4°F9.1°C 73% 0.5 mph SE0.8 kmh SE 1.8 mph2.9 kmh 29.91 in1012.9 mb 0.00 in0.0 mm 0.00 in0.0 mm 0.00 in0.0 mm
12:25 AM 56.6°F13.7°C 48.0°F8.9°C 73% Calm Calm -- 29.91 in1012.9 mb 0.00 in0.0 mm 0.00 in0.0 mm 0.00 in0.0 mm
12:30 AM 56.4°F13.6°C 47.8°F8.8°C 73% Calm Calm -- 29.91 in1012.9 mb 0.00 in0.0 mm 0.00 in0.0 mm 0.00 in0.0 mm
12:35 AM 56.0°F13.3°C 47.5°F8.6°C 73% Calm Calm -- 29.91 in1012.9 mb 0.00 in0.0 mm 0.00 in0.0 mm 0.00 in0.0 mm
12:40 AM 55.8°F13.2°C 47.3°F8.5°C 73% 0.3 mph NE0.5 kmh NE 2.7 mph4.3 kmh 29.88 in1011.9 mb 0.00 in0.0 mm 0.00 in0.0 mm 0.00 in0.0 mm
12:45 AM 55.3°F12.9°C 46.8°F8.2°C 73% 0.6 mph NE1.0 kmh NE 2.7 mph4.3 kmh 29.88 in1011.9 mb 0.00 in0.0 mm 0.00 in0.0 mm 0.00 in0.0 mm
12:50 AM 55.1°F12.8°C 47.0°F8.3°C 74% 0.6 mph NE1.0 kmh NE 2.7 mph4.3 kmh 29.88 in1011.9 mb 0.00 in0.0 mm 0.00 in0.0 mm 0.00 in0.0 mm
12:55 AM 54.8°F12.7°C 46.6°F8.1°C 74% Calm Calm -- 29.88 in1011.9 mb 0.00 in0.0 mm 0.00 in0.0 mm 0.00 in0.0 mm
01:00 AM 54.6°F12.6°C 46.5°F8.1°C 74% Calm Calm -- 29.88 in1011.9 mb 0.00 in0.0 mm 0.00 in0.0 mm 0.00 in0.0 mm
01:05 AM 54.0°F12.2°C 46.3°F7.9°C 75% Calm Calm -- 29.88 in1011.9 mb 0.00 in0.0 mm 0.00 in0.0 mm 0.00 in0.0 mm
01:10 AM 54.0°F12.2°C 46.3°F7.9°C 75% Calm Calm -- 29.88 in1011.9 mb 0.00 in0.0 mm 0.00 in0.0 mm 0.00 in0.0 mm
01:15 AM 53.7°F12.1°C 46.3°F7.9°C 76% Calm Calm -- 29.88 in1011.9 mb 0.00 in0.0 mm 0.00 in0.0 mm 0.00 in0.0 mm
01:20 AM 53.7°F12.1°C 46.7°F8.2°C 77% 0.4 mph NW0.6 kmh NW 2.1 mph3.4 kmh 29.88 in1011.9 mb 0.00 in0.0 mm 0.00 in0.0 mm 0.00 in0.0 mm
01:25 AM 53.7°F12.1°C 46.7°F8.2°C 77% 0.7 mph SW1.1 kmh SW 2.1 mph3.4 kmh 29.88 in1011.9 mb 0.00 in0.0 mm 0.00 in0.0 mm 0.00 in0.0 mm
01:30 AM 53.7°F12.1°C 47.3°F8.5°C 79% 0.2 mph S0.3 kmh S 1.8 mph2.9 kmh 29.88 in1011.9 mb 0.00 in0.0 mm 0.00 in0.0 mm 0.00 in0.0 mm
01:35 AM 53.9°F12.2°C 47.5°F8.6°C 79% 0.1 mph SW0.2 kmh SW 1.2 mph1.9 kmh 29.88 in1011.9 mb 0.00 in0.0 mm 0.00 in0.0 mm 0.00 in0.0 mm
01:40 AM 53.9°F12.2°C 47.5°F8.6°C 79% 0.1 mph SW0.2 kmh SW 1.2 mph1.9 kmh 29.91 in1012.9 mb 0.00 in0.0 mm 0.00 in0.0 mm 0.00 in0.0 mm
01:45 AM 53.9°F12.2°C 47.8°F8.8°C 80% Calm Calm -- 29.91 in1012.9 mb 0.00 in0.0 mm 0.00 in0.0 mm 0.00 in0.0 mm
01:50 AM 54.0°F12.2°C 48.0°F8.9°C 80% Calm Calm -- 29.91 in1012.9 mb 0.00 in0.0 mm 0.00 in0.0 mm 0.00 in0.0 mm
01:55 AM 54.0°F12.2°C 48.0°F8.9°C 80% 0.2 mph SW0.3 kmh SW 2.1 mph3.4 kmh 29.88 in1011.9 mb 0.00 in0.0 mm 0.00 in0.0 mm 0.00 in0.0 mm
02:00 AM 54.2°F12.3°C 48.2°F9.0°C 80% 0.2 mph SW0.3 kmh SW 2.1 mph3.4 kmh 29.88 in1011.9 mb 0.00 in0.0 mm 0.00 in0.0 mm 0.00 in0.0 mm
02:05 AM 54.4°F12.4°C 48.4°F9.1°C 80% Calm Calm -- 29.88 in1011.9 mb 0.00 in0.0 mm 0.00 in0.0 mm 0.00 in0.0 mm
02:10 AM 54.6°F12.6°C 48.5°F9.2°C 80% Calm Calm -- 29.88 in1011.9 mb 0.00 in0.0 mm 0.00 in0.0 mm 0.00 in0.0 mm
02:15 AM 54.8°F12.7°C 48.7°F9.3°C 80% Calm Calm -- 29.88 in1011.9 mb 0.00 in0.0 mm 0.00 in0.0 mm 0.00 in0.0 mm
02:20 AM 54.8°F12.7°C 48.7°F9.3°C 80% 0.1 mph NW0.2 kmh NW 1.2 mph1.9 kmh 29.88 in1011.9 mb 0.00 in0.0 mm 0.00 in0.0 mm 0.00 in0.0 mm
02:25 AM 55.0°F12.8°C 49.2°F9.6°C 81% 0.3 mph NW0.5 kmh NW 1.8 mph2.9 kmh 29.91 in1012.9 mb 0.00 in0.0 mm 0.00 in0.0 mm 0.00 in0.0 mm
02:30 AM 55.1°F12.8°C 49.4°F9.7°C 81% 0.3 mph NW0.5 kmh NW 1.8 mph2.9 kmh 29.91 in1012.9 mb 0.00 in0.0 mm 0.00 in0.0 mm 0.00 in0.0 mm
02:35 AM 55.3°F12.9°C 49.6°F9.8°C 81% 0.1 mph NW0.2 kmh NW 1.2 mph1.9 kmh 29.91 in1012.9 mb 0.00 in0.0 mm 0.00 in0.0 mm 0.00 in0.0 mm
02:40 AM 55.5°F13.1°C 49.8°F9.9°C 81% 0.2 mph NW0.3 kmh NW 2.1 mph3.4 kmh 29.91 in1012.9 mb 0.00 in0.0 mm 0.00 in0.0 mm 0.00 in0.0 mm
02:45 AM 55.5°F13.1°C 50.1°F10.1°C 82% 0.1 mph NW0.2 kmh NW 2.1 mph3.4 kmh 29.91 in1012.9 mb 0.00 in0.0 mm 0.00 in0.0 mm 0.00 in0.0 mm
02:50 AM 55.5°F13.1°C 50.1°F10.1°C 82% Calm Calm -- 29.91 in1012.9 mb 0.00 in0.0 mm 0.00 in0.0 mm 0.00 in0.0 mm
02:55 AM 55.7°F13.2°C 50.3°F10.2°C 82% Calm Calm -- 29.91 in1012.9 mb 0.00 in0.0 mm 0.00 in0.0 mm 0.00 in0.0 mm
03:00 AM 55.7°F13.2°C 50.3°F10.2°C 82% Calm Calm -- 29.91 in1012.9 mb 0.00 in0.0 mm 0.00 in0.0 mm 0.00 in0.0 mm
03:05 AM 55.7°F13.2°C 50.3°F10.2°C 82% 0.5 mph E0.8 kmh E 4.2 mph6.8 kmh 29.91 in1012.9 mb 0.00 in0.0 mm 0.00 in0.0 mm 0.00 in0.0 mm
03:10 AM 55.8°F13.2°C 50.4°F10.2°C 82% 0.9 mph ESE1.4 kmh ESE 4.2 mph6.8 kmh 29.91 in1012.9 mb 0.00 in0.0 mm 0.00 in0.0 mm 0.00 in0.0 mm
03:15 AM 55.8°F13.2°C 50.4°F10.2°C 82% 0.5 mph SE0.8 kmh SE 2.1 mph3.4 kmh 29.91 in1012.9 mb 0.00 in0.0 mm 0.00 in0.0 mm 0.00 in0.0 mm
03:20 AM 55.8°F13.2°C 50.4°F10.2°C 82% 0.1 mph SE0.2 kmh SE 1.5 mph2.4 kmh 29.91 in1012.9 mb 0.00 in0.0 mm 0.00 in0.0 mm 0.00 in0.0 mm
03:25 AM 55.8°F13.2°C 50.4°F10.2°C 82% Calm Calm -- 29.91 in1012.9 mb 0.00 in0.0 mm 0.00 in0.0 mm 0.00 in0.0 mm
03:30 AM 55.8°F13.2°C 50.4°F10.2°C 82% Calm Calm -- 29.91 in1012.9 mb 0.00 in0.0 mm 0.00 in0.0 mm 0.00 in0.0 mm
03:35 AM 55.8°F13.2°C 50.4°F10.2°C 82% 0.1 mph S0.2 kmh S 1.2 mph1.9 kmh 29.91 in1012.9 mb 0.00 in0.0 mm 0.00 in0.0 mm 0.00 in0.0 mm
03:40 AM 55.7°F13.2°C 50.3°F10.2°C 82% 0.1 mph S0.2 kmh S 1.2 mph1.9 kmh 29.88 in1011.9 mb 0.00 in0.0 mm 0.00 in0.0 mm 0.00 in0.0 mm
03:45 AM 55.7°F13.2°C 50.3°F10.2°C 82% 0.1 mph S0.2 kmh S 1.2 mph1.9 kmh 29.88 in1011.9 mb 0.00 in0.0 mm 0.00 in0.0 mm 0.00 in0.0 mm
03:50 AM 55.5°F13.1°C 50.1°F10.1°C 82% 0.1 mph S0.2 kmh S 1.2 mph1.9 kmh 29.88 in1011.9 mb 0.00 in0.0 mm 0.00 in0.0 mm 0.00 in0.0 mm
03:55 AM 55.5°F13.1°C 50.4°F10.2°C 83% Calm Calm -- 29.88 in1011.9 mb 0.00 in0.0 mm 0.00 in0.0 mm 0.00 in0.0 mm
04:00 AM 55.3°F12.9°C 50.2°F10.1°C 83% Calm Calm -- 29.88 in1011.9 mb 0.00 in0.0 mm 0.00 in0.0 mm 0.00 in0.0 mm
04:05 AM 55.1°F12.8°C 50.1°F10.1°C 83% Calm Calm -- 29.88 in1011.9 mb 0.00 in0.0 mm 0.00 in0.0 mm 0.00 in0.0 mm
04:10 AM 55.1°F12.8°C 50.1°F10.1°C 83% Calm Calm -- 29.88 in1011.9 mb 0.00 in0.0 mm 0.00 in0.0 mm 0.00 in0.0 mm
04:15 AM 55.1°F12.8°C 50.1°F10.1°C 83% Calm Calm -- 29.88 in1011.9 mb 0.00 in0.0 mm 0.00 in0.0 mm 0.00 in0.0 mm
04:20 AM 55.1°F12.8°C 50.1°F10.1°C 83% Calm Calm -- 29.88 in1011.9 mb 0.00 in0.0 mm 0.00 in0.0 mm 0.00 in0.0 mm
04:25 AM 55.1°F12.8°C 50.1°F10.1°C 83% Calm Calm -- 29.88 in1011.9 mb 0.00 in0.0 mm 0.00 in0.0 mm 0.00 in0.0 mm
04:40 AM 55.1°F12.8°C 50.4°F10.2°C 84% 0.3 mph S0.5 kmh S 3.0 mph4.8 kmh 29.88 in1011.9 mb 0.00 in0.0 mm 0.00 in0.0 mm 0.00 in0.0 mm
04:45 AM 55.1°F12.8°C 50.4°F10.2°C 84% 0.2 mph SW0.3 kmh SW 1.2 mph1.9 kmh 29.88 in1011.9 mb 0.00 in0.0 mm 0.00 in0.0 mm 0.00 in0.0 mm
04:50 AM 55.1°F12.8°C 50.4°F10.2°C 84% 0.7 mph WSW1.1 kmh WSW 2.7 mph4.3 kmh 29.88 in1011.9 mb 0.00 in0.0 mm 0.00 in0.0 mm 0.00 in0.0 mm
04:55 AM 55.1°F12.8°C 50.4°F10.2°C 84% 1.2 mph W1.9 kmh W 3.9 mph6.3 kmh 29.91 in1012.9 mb 0.00 in0.0 mm 0.00 in0.0 mm 0.00 in0.0 mm
05:00 AM 55.3°F12.9°C 50.6°F10.3°C 84% 0.9 mph W1.4 kmh W 3.9 mph6.3 kmh 29.91 in1012.9 mb 0.00 in0.0 mm 0.00 in0.0 mm 0.00 in0.0 mm
05:05 AM 55.3°F12.9°C 50.6°F10.3°C 84% Calm Calm -- 29.91 in1012.9 mb 0.00 in0.0 mm 0.00 in0.0 mm 0.00 in0.0 mm
05:10 AM 55.3°F12.9°C 50.6°F10.3°C 84% Calm Calm -- 29.91 in1012.9 mb 0.00 in0.0 mm 0.00 in0.0 mm 0.00 in0.0 mm
05:15 AM 55.3°F12.9°C 50.9°F10.5°C 85% 0.5 mph WNW0.8 kmh WNW 2.7 mph4.3 kmh 29.91 in1012.9 mb 0.00 in0.0 mm 0.00 in0.0 mm 0.00 in0.0 mm
05:20 AM 55.5°F13.1°C 51.1°F10.6°C 85% 0.6 mph WNW1.0 kmh WNW 2.7 mph4.3 kmh 29.91 in1012.9 mb 0.00 in0.0 mm 0.00 in0.0 mm 0.00 in0.0 mm
05:25 AM 55.5°F13.1°C 51.1°F10.6°C 85% 0.5 mph NW0.8 kmh NW 1.5 mph2.4 kmh 29.91 in1012.9 mb 0.00 in0.0 mm 0.00 in0.0 mm 0.00 in0.0 mm
05:30 AM 55.5°F13.1°C 51.1°F10.6°C 85% 0.3 mph NW0.5 kmh NW 1.2 mph1.9 kmh 29.91 in1012.9 mb 0.00 in0.0 mm 0.00 in0.0 mm 0.00 in0.0 mm
05:35 AM 55.5°F13.1°C 51.1°F10.6°C 85% Calm Calm -- 29.91 in1012.9 mb 0.00 in0.0 mm 0.00 in0.0 mm 0.00 in0.0 mm
05:40 AM 55.5°F13.1°C 51.1°F10.6°C 85% Calm Calm -- 29.88 in1011.9 mb 0.00 in0.0 mm 0.00 in0.0 mm 0.00 in0.0 mm
05:45 AM 55.5°F13.1°C 51.1°F10.6°C 85% Calm Calm -- 29.88 in1011.9 mb 0.00 in0.0 mm 0.00 in0.0 mm 0.00 in0.0 mm
05:50 AM 55.5°F13.1°C 51.1°F10.6°C 85% Calm Calm -- 29.88 in1011.9 mb 0.00 in0.0 mm 0.00 in0.0 mm 0.00 in0.0 mm
05:55 AM 55.5°F13.1°C 51.1°F10.6°C 85% Calm Calm -- 29.91 in1012.9 mb 0.00 in0.0 mm 0.00 in0.0 mm 0.00 in0.0 mm
06:00 AM 55.5°F13.1°C 51.4°F10.8°C 86% Calm Calm -- 29.91 in1012.9 mb 0.00 in0.0 mm 0.00 in0.0 mm 0.00 in0.0 mm
06:05 AM 55.5°F13.1°C 51.4°F10.8°C 86% 0.1 mph NW0.2 kmh NW 2.1 mph3.4 kmh 29.91 in1012.9 mb 0.00 in0.0 mm 0.00 in0.0 mm 0.00 in0.0 mm
06:10 AM 55.7°F13.2°C 51.5°F10.8°C 86% 0.2 mph NW0.3 kmh NW 2.1 mph3.4 kmh 29.91 in1012.9 mb 0.00 in0.0 mm 0.00 in0.0 mm 0.00 in0.0 mm
06:15 AM 55.7°F13.2°C 51.5°F10.8°C 86% 0.4 mph NW0.6 kmh NW 1.8 mph2.9 kmh 29.91 in1012.9 mb 0.00 in0.0 mm 0.00 in0.0 mm 0.00 in0.0 mm
06:20 AM 55.7°F13.2°C 51.5°F10.8°C 86% 0.7 mph NW1.1 kmh NW 2.1 mph3.4 kmh 29.91 in1012.9 mb 0.00 in0.0 mm 0.00 in0.0 mm 0.00 in0.0 mm
06:25 AM 55.7°F13.2°C 51.5°F10.8°C 86% 0.4 mph NW0.6 kmh NW 2.1 mph3.4 kmh 29.91 in1012.9 mb 0.00 in0.0 mm 0.00 in0.0 mm 0.00 in0.0 mm
06:30 AM 55.8°F13.2°C 51.7°F10.9°C 86% 0.8 mph NW1.3 kmh NW 3.0 mph4.8 kmh 29.91 in1012.9 mb 0.00 in0.0 mm 0.00 in0.0 mm 0.00 in0.0 mm
06:35 AM 55.8°F13.2°C 51.7°F10.9°C 86% 0.7 mph NW1.1 kmh NW 3.0 mph4.8 kmh 29.91 in1012.9 mb 0.00 in0.0 mm 0.00 in0.0 mm 0.00 in0.0 mm
06:40 AM 56.0°F13.3°C 51.9°F11.1°C 86% Calm Calm -- 29.91 in1012.9 mb 0.00 in0.0 mm 0.00 in0.0 mm 0.00 in0.0 mm
06:45 AM 56.0°F13.3°C 51.9°F11.1°C 86% 0.6 mph NW1.0 kmh NW 3.0 mph4.8 kmh 29.91 in1012.9 mb 0.00 in0.0 mm 0.00 in0.0 mm 0.00 in0.0 mm
06:50 AM 56.2°F13.4°C 52.1°F11.2°C 86% 1.2 mph WNW1.9 kmh WNW 4.2 mph6.8 kmh 29.91 in1012.9 mb 0.00 in0.0 mm 0.00 in0.0 mm 0.00 in0.0 mm
06:55 AM 56.4°F13.6°C 52.3°F11.3°C 86% 1.9 mph W3.1 kmh W 4.2 mph6.8 kmh 29.91 in1012.9 mb 0.00 in0.0 mm 0.00 in0.0 mm 0.00 in0.0 mm
07:00 AM 56.4°F13.6°C 52.3°F11.3°C 86% 1.3 mph W2.1 kmh W 4.2 mph6.8 kmh 29.91 in1012.9 mb 0.00 in0.0 mm 0.00 in0.0 mm 0.00 in0.0 mm
07:05 AM 56.6°F13.7°C 52.4°F11.3°C 86% 0.7 mph WSW1.1 kmh WSW 3.0 mph4.8 kmh 29.91 in1012.9 mb 0.00 in0.0 mm 0.00 in0.0 mm 0.00 in0.0 mm
07:10 AM 56.6°F13.7°C 52.4°F11.3°C 86% 1.3 mph WSW2.1 kmh WSW 3.0 mph4.8 kmh 29.91 in1012.9 mb 0.00 in0.0 mm 0.00 in0.0 mm 0.00 in0.0 mm
07:15 AM 56.8°F13.8°C 52.6°F11.4°C 86% 1.4 mph WSW2.3 kmh WSW 3.0 mph4.8 kmh 29.91 in1012.9 mb 0.00 in0.0 mm 0.00 in0.0 mm 0.00 in0.0 mm
07:20 AM 56.9°F13.8°C 53.1°F11.7°C 87% 1.7 mph W2.7 kmh W 3.3 mph5.3 kmh 29.91 in1012.9 mb 0.00 in0.0 mm 0.00 in0.0 mm 0.00 in0.0 mm
07:25 AM 56.9°F13.8°C 53.1°F11.7°C 87% 2.0 mph WSW3.2 kmh WSW 3.6 mph5.8 kmh 29.91 in1012.9 mb 0.00 in0.0 mm 0.00 in0.0 mm 0.00 in0.0 mm
07:30 AM 57.3°F14.1°C 53.5°F11.9°C 87% 1.5 mph WSW2.4 kmh WSW 4.2 mph6.8 kmh 29.91 in1012.9 mb 0.00 in0.0 mm 0.00 in0.0 mm 0.00 in0.0 mm
07:35 AM 57.5°F14.2°C 53.6°F12.0°C 87% 2.0 mph WNW3.2 kmh WNW 4.5 mph7.2 kmh 29.91 in1012.9 mb 0.00 in0.0 mm 0.00 in0.0 mm 0.00 in0.0 mm
07:40 AM 57.7°F14.3°C 53.8°F12.1°C 87% 1.8 mph NW2.9 kmh NW 4.5 mph7.2 kmh 29.91 in1012.9 mb 0.00 in0.0 mm 0.00 in0.0 mm 0.00 in0.0 mm
07:45 AM 58.0°F14.4°C 54.2°F12.3°C 87% 1.3 mph WNW2.1 kmh WNW 5.4 mph8.7 kmh 29.91 in1012.9 mb 0.00 in0.0 mm 0.00 in0.0 mm 0.00 in0.0 mm
07:50 AM 58.4°F14.7°C 54.5°F12.5°C 87% 2.0 mph W3.2 kmh W 5.4 mph8.7 kmh 29.91 in1012.9 mb 0.00 in0.0 mm 0.00 in0.0 mm 0.00 in0.0 mm
07:55 AM 58.9°F14.9°C 55.0°F12.8°C 87% 1.9 mph W3.1 kmh W 5.4 mph8.7 kmh 29.91 in1012.9 mb 0.00 in0.0 mm 0.00 in0.0 mm 0.00 in0.0 mm
08:00 AM 59.3°F15.2°C 55.1°F12.8°C 86% 2.7 mph W4.3 kmh W 4.8 mph7.7 kmh 29.91 in1012.9 mb 0.00 in0.0 mm 0.00 in0.0 mm 0.00 in0.0 mm
08:05 AM 59.5°F15.3°C 54.9°F12.7°C 85% 3.7 mph W6.0 kmh W 5.7 mph9.2 kmh 29.91 in1012.9 mb 0.00 in0.0 mm 0.00 in0.0 mm 0.00 in0.0 mm
08:10 AM 60.0°F15.6°C 55.1°F12.8°C 84% 3.8 mph WSW6.1 kmh WSW 6.2 mph10.0 kmh 29.91 in1012.9 mb 0.00 in0.0 mm 0.00 in0.0 mm 0.00 in0.0 mm
08:15 AM 60.3°F15.7°C 55.5°F13.1°C 84% 3.4 mph WSW5.5 kmh WSW 6.2 mph10.0 kmh 29.91 in1012.9 mb 0.00 in0.0 mm 0.00 in0.0 mm 0.00 in0.0 mm
08:20 AM 60.9°F16.1°C 55.7°F13.2°C 83% 2.8 mph W4.5 kmh W 6.2 mph10.0 kmh 29.91 in1012.9 mb 0.00 in0.0 mm 0.00 in0.0 mm 0.00 in0.0 mm
08:25 AM 61.4°F16.3°C 55.9°F13.3°C 82% 2.6 mph NW4.2 kmh NW 4.2 mph6.8 kmh 29.91 in1012.9 mb 0.00 in0.0 mm 0.00 in0.0 mm 0.00 in0.0 mm
08:30 AM 61.6°F16.4°C 55.7°F13.2°C 81% 3.6 mph NW5.8 kmh NW 7.1 mph11.4 kmh 29.91 in1012.9 mb 0.00 in0.0 mm 0.00 in0.0 mm 0.00 in0.0 mm
08:35 AM 61.8°F16.6°C 55.9°F13.3°C 81% 4.4 mph NW7.1 kmh NW 7.4 mph11.9 kmh 29.91 in1012.9 mb 0.00 in0.0 mm 0.00 in0.0 mm 0.00 in0.0 mm
08:40 AM 61.8°F16.6°C 55.6°F13.1°C 80% 5.3 mph WNW8.5 kmh WNW 7.4 mph11.9 kmh 29.91 in1012.9 mb 0.00 in0.0 mm 0.00 in0.0 mm 0.00 in0.0 mm
08:45 AM 61.8°F16.6°C 55.2°F12.9°C 79% 5.4 mph WNW8.7 kmh WNW 7.4 mph11.9 kmh 29.91 in1012.9 mb 0.00 in0.0 mm 0.00 in0.0 mm 0.00 in0.0 mm
08:50 AM 62.0°F16.7°C 55.4°F13.0°C 79% 4.3 mph NW6.9 kmh NW 7.4 mph11.9 kmh 29.91 in1012.9 mb 0.00 in0.0 mm 0.00 in0.0 mm 0.00 in0.0 mm
08:55 AM 62.2°F16.8°C 55.2°F12.9°C 78% 5.2 mph NW8.4 kmh NW 8.0 mph12.9 kmh 29.94 in1013.9 mb 0.00 in0.0 mm 0.00 in0.0 mm 0.00 in0.0 mm
09:00 AM 62.2°F16.8°C 55.2°F12.9°C 78% 5.4 mph NW8.7 kmh NW 8.0 mph12.9 kmh 29.94 in1013.9 mb 0.00 in0.0 mm 0.00 in0.0 mm 0.00 in0.0 mm
09:05 AM 62.5°F16.9°C 55.2°F12.9°C 77% 4.0 mph NW6.4 kmh NW 6.2 mph10.0 kmh 29.94 in1013.9 mb 0.00 in0.0 mm 0.00 in0.0 mm 0.00 in0.0 mm
09:10 AM 62.7°F17.1°C 55.0°F12.8°C 76% 3.9 mph NW6.3 kmh NW 7.1 mph11.4 kmh 29.94 in1013.9 mb 0.00 in0.0 mm 0.00 in0.0 mm 0.00 in0.0 mm
09:15 AM 62.9°F17.2°C 55.2°F12.9°C 76% 4.5 mph WNW7.2 kmh WNW 7.1 mph11.4 kmh 29.94 in1013.9 mb 0.00 in0.0 mm 0.00 in0.0 mm 0.00 in0.0 mm
09:20 AM 63.0°F17.2°C 55.0°F12.8°C 75% 3.9 mph WNW6.3 kmh WNW 7.1 mph11.4 kmh 29.94 in1013.9 mb 0.00 in0.0 mm 0.00 in0.0 mm 0.00 in0.0 mm
09:25 AM 63.0°F17.2°C 55.0°F12.8°C 75% 2.6 mph NW4.2 kmh NW 7.7 mph12.4 kmh 29.94 in1013.9 mb 0.00 in0.0 mm 0.00 in0.0 mm 0.00 in0.0 mm
09:30 AM 64.0°F17.8°C 55.5°F13.1°C 74% 2.9 mph W4.7 kmh W 7.7 mph12.4 kmh 29.94 in1013.9 mb 0.00 in0.0 mm 0.00 in0.0 mm 0.00 in0.0 mm
09:35 AM 64.8°F18.2°C 56.0°F13.3°C 73% 3.5 mph W5.6 kmh W 4.8 mph7.7 kmh 29.94 in1013.9 mb 0.00 in0.0 mm 0.00 in0.0 mm 0.00 in0.0 mm
09:40 AM 65.2°F18.4°C 56.0°F13.3°C 72% 4.9 mph NW7.9 kmh NW 11.3 mph18.2 kmh 29.94 in1013.9 mb 0.00 in0.0 mm 0.00 in0.0 mm 0.00 in0.0 mm
09:45 AM 65.4°F18.6°C 55.7°F13.2°C 71% 5.3 mph NW8.5 kmh NW 11.3 mph18.2 kmh 29.94 in1013.9 mb 0.00 in0.0 mm 0.00 in0.0 mm 0.00 in0.0 mm
09:50 AM 65.8°F18.8°C 56.1°F13.4°C 71% 4.6 mph WNW7.4 kmh WNW 7.7 mph12.4 kmh 29.94 in1013.9 mb 0.00 in0.0 mm 0.00 in0.0 mm 0.00 in0.0 mm
09:55 AM 66.1°F18.9°C 56.0°F13.3°C 70% 5.0 mph NW8.0 kmh NW 7.7 mph12.4 kmh 29.94 in1013.9 mb 0.00 in0.0 mm 0.00 in0.0 mm 0.00 in0.0 mm
10:00 AM 66.7°F19.3°C 56.2°F13.4°C 69% 6.5 mph NW10.5 kmh NW 10.1 mph16.3 kmh 29.94 in1013.9 mb 0.00 in0.0 mm 0.00 in0.0 mm 0.00 in0.0 mm
10:05 AM 67.0°F19.4°C 56.1°F13.4°C 68% 6.7 mph NW10.8 kmh NW 10.1 mph16.3 kmh 29.94 in1013.9 mb 0.00 in0.0 mm 0.00 in0.0 mm 0.00 in0.0 mm
10:10 AM 67.6°F19.8°C 56.6°F13.7°C 68% 5.4 mph NNW8.7 kmh NNW 9.2 mph14.8 kmh 29.97 in1014.9 mb 0.00 in0.0 mm 0.00 in0.0 mm 0.00 in0.0 mm
10:15 AM 67.7°F19.8°C 56.4°F13.6°C 67% 6.2 mph N10.0 kmh N 9.2 mph14.8 kmh 29.97 in1014.9 mb 0.00 in0.0 mm 0.00 in0.0 mm 0.00 in0.0 mm
10:20 AM 67.7°F19.8°C 56.0°F13.3°C 66% 5.7 mph NNW9.2 kmh NNW 8.3 mph13.4 kmh 29.97 in1014.9 mb 0.00 in0.0 mm 0.00 in0.0 mm 0.00 in0.0 mm
10:25 AM 67.7°F19.8°C 56.0°F13.3°C 66% 4.7 mph WNW7.6 kmh WNW 8.3 mph13.4 kmh 29.97 in1014.9 mb 0.00 in0.0 mm 0.00 in0.0 mm 0.00 in0.0 mm
10:30 AM 67.6°F19.8°C 55.8°F13.2°C 66% 5.7 mph W9.2 kmh W 8.6 mph13.8 kmh 29.97 in1014.9 mb 0.00 in0.0 mm 0.00 in0.0 mm 0.00 in0.0 mm
10:35 AM 67.2°F19.6°C 55.0°F12.8°C 65% 6.0 mph W9.7 kmh W 8.6 mph13.8 kmh 29.97 in1014.9 mb 0.00 in0.0 mm 0.00 in0.0 mm 0.00 in0.0 mm
10:40 AM 66.8°F19.3°C 54.7°F12.6°C 65% 5.3 mph W8.5 kmh W 8.0 mph12.9 kmh 29.97 in1014.9 mb 0.00 in0.0 mm 0.00 in0.0 mm 0.00 in0.0 mm
10:45 AM 66.7°F19.3°C 54.5°F12.5°C 65% 5.7 mph WNW9.2 kmh WNW 8.3 mph13.4 kmh 29.97 in1014.9 mb 0.00 in0.0 mm 0.00 in0.0 mm 0.00 in0.0 mm
10:50 AM 66.7°F19.3°C 54.9°F12.7°C 66% 6.1 mph W9.8 kmh W 9.8 mph15.8 kmh 29.97 in1014.9 mb 0.00 in0.0 mm 0.00 in0.0 mm 0.00 in0.0 mm
10:55 AM 66.3°F19.1°C 54.6°F12.6°C 66% 5.9 mph W9.5 kmh W 9.8 mph15.8 kmh 29.97 in1014.9 mb 0.00 in0.0 mm 0.00 in0.0 mm 0.00 in0.0 mm
11:00 AM 66.1°F18.9°C 54.4°F12.4°C 66% 6.0 mph W9.7 kmh W 8.6 mph13.8 kmh 29.97 in1014.9 mb 0.00 in0.0 mm 0.00 in0.0 mm 0.00 in0.0 mm
11:05 AM 66.1°F18.9°C 54.4°F12.4°C 66% 5.8 mph W9.3 kmh W 10.4 mph16.7 kmh 29.97 in1014.9 mb 0.00 in0.0 mm 0.00 in0.0 mm 0.00 in0.0 mm
11:10 AM 65.9°F18.8°C 54.2°F12.3°C 66% 5.5 mph W8.9 kmh W 10.4 mph16.7 kmh 29.97 in1014.9 mb 0.00 in0.0 mm 0.00 in0.0 mm 0.00 in0.0 mm
11:15 AM 65.9°F18.8°C 54.2°F12.3°C 66% 5.8 mph W9.3 kmh W 10.4 mph16.7 kmh 29.97 in1014.9 mb 0.00 in0.0 mm 0.00 in0.0 mm 0.00 in0.0 mm
11:20 AM 65.9°F18.8°C 54.2°F12.3°C 66% 6.1 mph W9.8 kmh W 8.3 mph13.4 kmh 29.97 in1014.9 mb 0.00 in0.0 mm 0.00 in0.0 mm 0.00 in0.0 mm
11:25 AM 65.8°F18.8°C 54.1°F12.3°C 66% 5.7 mph W9.2 kmh W 8.3 mph13.4 kmh 29.97 in1014.9 mb 0.00 in0.0 mm 0.00 in0.0 mm 0.00 in0.0 mm
11:30 AM 65.8°F18.8°C 54.1°F12.3°C 66% 5.0 mph W8.0 kmh W 7.4 mph11.9 kmh 29.97 in1014.9 mb 0.00 in0.0 mm 0.00 in0.0 mm 0.00 in0.0 mm
11:35 AM 65.8°F18.8°C 54.1°F12.3°C 66% 5.6 mph W9.0 kmh W 8.3 mph13.4 kmh 29.97 in1014.9 mb 0.00 in0.0 mm 0.00 in0.0 mm 0.00 in0.0 mm
11:40 AM 66.5°F19.2°C 55.2°F12.9°C 67% 5.9 mph WNW9.5 kmh WNW 8.3 mph13.4 kmh 29.97 in1014.9 mb 0.00 in0.0 mm 0.00 in0.0 mm 0.00 in0.0 mm
11:45 AM 66.8°F19.3°C 55.1°F12.8°C 66% 6.0 mph NW9.7 kmh NW 8.0 mph12.9 kmh 29.97 in1014.9 mb 0.00 in0.0 mm 0.00 in0.0 mm 0.00 in0.0 mm
11:50 AM 67.0°F19.4°C 54.9°F12.7°C 65% 6.4 mph WNW10.3 kmh WNW 9.8 mph15.8 kmh 29.97 in1014.9 mb 0.00 in0.0 mm 0.00 in0.0 mm 0.00 in0.0 mm
11:55 AM 67.0°F19.4°C 54.9°F12.7°C 65% 6.3 mph W10.1 kmh W 9.8 mph15.8 kmh 29.97 in1014.9 mb 0.00 in0.0 mm 0.00 in0.0 mm 0.00 in0.0 mm
12:00 PM 67.0°F19.4°C 54.9°F12.7°C 65% 8.1 mph W13.0 kmh W 13.4 mph21.6 kmh 29.97 in1014.9 mb 0.00 in0.0 mm 0.00 in0.0 mm 0.00 in0.0 mm
12:05 PM 66.8°F19.3°C 54.7°F12.6°C 65% 8.9 mph W14.3 kmh W 13.4 mph21.6 kmh 29.97 in1014.9 mb 0.00 in0.0 mm 0.00 in0.0 mm 0.00 in0.0 mm
12:10 PM 67.0°F19.4°C 55.3°F12.9°C 66% 7.1 mph W11.4 kmh W 10.7 mph17.2 kmh 30.00 in1015.9 mb 0.00 in0.0 mm 0.00 in0.0 mm 0.00 in0.0 mm
12:15 PM 67.0°F19.4°C 55.3°F12.9°C 66% 7.8 mph W12.6 kmh W 13.1 mph21.1 kmh 30.00 in1015.9 mb 0.00 in0.0 mm 0.00 in0.0 mm 0.00 in0.0 mm
12:20 PM 67.0°F19.4°C 54.9°F12.7°C 65% 9.4 mph W15.1 kmh W 13.1 mph21.1 kmh 30.00 in1015.9 mb 0.00 in0.0 mm 0.00 in0.0 mm 0.00 in0.0 mm
12:25 PM 67.6°F19.8°C 55.4°F13.0°C 65% 9.2 mph WSW14.8 kmh WSW 13.1 mph21.1 kmh 30.00 in1015.9 mb 0.00 in0.0 mm 0.00 in0.0 mm 0.00 in0.0 mm
12:30 PM 67.9°F19.9°C 55.7°F13.2°C 65% 8.9 mph W14.3 kmh W 11.9 mph19.2 kmh 30.00 in1015.9 mb 0.00 in0.0 mm 0.00 in0.0 mm 0.00 in0.0 mm
12:35 PM 67.9°F19.9°C 55.7°F13.2°C 65% 11.0 mph W17.7 kmh W 14.0 mph22.5 kmh 30.00 in1015.9 mb 0.00 in0.0 mm 0.00 in0.0 mm 0.00 in0.0 mm
12:40 PM 68.3°F20.2°C 56.0°F13.3°C 65% 10.5 mph WSW16.9 kmh WSW 14.0 mph22.5 kmh 30.00 in1015.9 mb 0.00 in0.0 mm 0.00 in0.0 mm 0.00 in0.0 mm
12:45 PM 68.6°F20.3°C 56.0°F13.3°C 64% 9.2 mph WSW14.8 kmh WSW 13.4 mph21.6 kmh 30.00 in1015.9 mb 0.00 in0.0 mm 0.00 in0.0 mm 0.00 in0.0 mm
12:50 PM 68.6°F20.3°C 56.0°F13.3°C 64% 9.5 mph W15.3 kmh W 13.4 mph21.6 kmh 30.00 in1015.9 mb 0.00 in0.0 mm 0.00 in0.0 mm 0.00 in0.0 mm
12:55 PM 68.8°F20.4°C 55.7°F13.2°C 63% 9.0 mph W14.5 kmh W 13.4 mph21.6 kmh 30.00 in1015.9 mb 0.00 in0.0 mm 0.00 in0.0 mm 0.00 in0.0 mm
01:00 PM 68.6°F20.3°C 56.0°F13.3°C 64% 10.5 mph WSW16.9 kmh WSW 15.8 mph25.4 kmh 30.00 in1015.9 mb 0.00 in0.0 mm 0.00 in0.0 mm 0.00 in0.0 mm
01:05 PM 69.0°F20.6°C 55.9°F13.3°C 63% 9.9 mph W15.9 kmh W 15.8 mph25.4 kmh 30.00 in1015.9 mb 0.00 in0.0 mm 0.00 in0.0 mm 0.00 in0.0 mm
01:10 PM 69.0°F20.6°C 56.3°F13.5°C 64% 7.7 mph W12.4 kmh W 11.3 mph18.2 kmh 30.00 in1015.9 mb 0.00 in0.0 mm 0.00 in0.0 mm 0.00 in0.0 mm
01:15 PM 69.0°F20.6°C 55.9°F13.3°C 63% 8.2 mph WSW13.2 kmh WSW 11.3 mph18.2 kmh 30.00 in1015.9 mb 0.00 in0.0 mm 0.00 in0.0 mm 0.00 in0.0 mm
01:20 PM 69.2°F20.7°C 56.5°F13.6°C 64% 8.7 mph W14.0 kmh W 14.3 mph23.0 kmh 30.00 in1015.9 mb 0.00 in0.0 mm 0.00 in0.0 mm 0.00 in0.0 mm
01:25 PM 69.3°F20.7°C 56.6°F13.7°C 64% 8.6 mph W13.8 kmh W 14.3 mph23.0 kmh 30.00 in1015.9 mb 0.00 in0.0 mm 0.00 in0.0 mm 0.00 in0.0 mm
01:30 PM 69.9°F21.1°C 56.7°F13.7°C 63% 7.1 mph W11.4 kmh W 9.8 mph15.8 kmh 30.00 in1015.9 mb 0.00 in0.0 mm 0.00 in0.0 mm 0.00 in0.0 mm
01:35 PM 70.3°F21.3°C 56.6°F13.7°C 62% 8.0 mph W12.9 kmh W 13.1 mph21.1 kmh 30.00 in1015.9 mb 0.00 in0.0 mm 0.00 in0.0 mm 0.00 in0.0 mm
01:40 PM 70.3°F21.3°C 56.6°F13.7°C 62% 9.6 mph W15.4 kmh W 13.1 mph21.1 kmh 30.00 in1015.9 mb 0.00 in0.0 mm 0.00 in0.0 mm 0.00 in0.0 mm
01:45 PM 70.3°F21.3°C 56.6°F13.7°C 62% 10.0 mph W16.1 kmh W 11.3 mph18.2 kmh 30.00 in1015.9 mb 0.00 in0.0 mm 0.00 in0.0 mm 0.00 in0.0 mm
01:50 PM 70.6°F21.4°C 57.0°F13.9°C 62% 9.3 mph W15.0 kmh W 11.6 mph18.7 kmh 30.00 in1015.9 mb 0.00 in0.0 mm 0.00 in0.0 mm 0.00 in0.0 mm
01:55 PM 70.8°F21.6°C 57.1°F13.9°C 62% 9.5 mph W15.3 kmh W 12.2 mph19.6 kmh 30.00 in1015.9 mb 0.00 in0.0 mm 0.00 in0.0 mm 0.00 in0.0 mm
02:00 PM 70.3°F21.3°C 56.6°F13.7°C 62% 10.1 mph W16.3 kmh W 14.0 mph22.5 kmh 30.00 in1015.9 mb 0.00 in0.0 mm 0.00 in0.0 mm 0.00 in0.0 mm
02:05 PM 70.3°F21.3°C 56.6°F13.7°C 62% 10.3 mph W16.6 kmh W 14.0 mph22.5 kmh 30.00 in1015.9 mb 0.00 in0.0 mm 0.00 in0.0 mm 0.00 in0.0 mm
02:10 PM 70.3°F21.3°C 56.6°F13.7°C 62% 10.5 mph W16.9 kmh W 14.0 mph22.5 kmh 30.00 in1015.9 mb 0.00 in0.0 mm 0.00 in0.0 mm 0.00 in0.0 mm
02:15 PM 71.0°F21.7°C 56.8°F13.8°C 61% 9.4 mph W15.1 kmh W 14.0 mph22.5 kmh 30.00 in1015.9 mb 0.00 in0.0 mm 0.00 in0.0 mm 0.00 in0.0 mm
02:20 PM 70.6°F21.4°C 56.5°F13.6°C 61% 9.9 mph W15.9 kmh W 13.7 mph22.0 kmh 30.00 in1015.9 mb 0.00 in0.0 mm 0.00 in0.0 mm 0.00 in0.0 mm
02:25 PM 70.1°F21.2°C 56.0°F13.3°C 61% 9.3 mph W15.0 kmh W 13.7 mph22.0 kmh 30.00 in1015.9 mb 0.00 in0.0 mm 0.00 in0.0 mm 0.00 in0.0 mm
02:30 PM 69.3°F20.7°C 55.3°F12.9°C 61% 8.4 mph W13.5 kmh W 11.6 mph18.7 kmh 30.00 in1015.9 mb 0.00 in0.0 mm 0.00 in0.0 mm 0.00 in0.0 mm
02:35 PM 69.0°F20.6°C 55.0°F12.8°C 61% 8.0 mph WNW12.9 kmh WNW 11.6 mph18.7 kmh 30.00 in1015.9 mb 0.00 in0.0 mm 0.00 in0.0 mm 0.00 in0.0 mm
02:40 PM 68.4°F20.2°C 54.5°F12.5°C 61% 7.7 mph WNW12.4 kmh WNW 11.6 mph18.7 kmh 30.00 in1015.9 mb 0.00 in0.0 mm 0.00 in0.0 mm 0.00 in0.0 mm
02:45 PM 68.1°F20.1°C 54.1°F12.3°C 61% 6.9 mph WNW11.1 kmh WNW 11.6 mph18.7 kmh 30.00 in1015.9 mb 0.00 in0.0 mm 0.00 in0.0 mm 0.00 in0.0 mm
02:50 PM 68.3°F20.2°C 54.3°F12.4°C 61% 5.9 mph WNW9.5 kmh WNW 9.8 mph15.8 kmh 30.00 in1015.9 mb 0.00 in0.0 mm 0.00 in0.0 mm 0.00 in0.0 mm
02:55 PM 68.3°F20.2°C 54.3°F12.4°C 61% 5.9 mph NW9.5 kmh NW 7.4 mph11.9 kmh 30.00 in1015.9 mb 0.00 in0.0 mm 0.00 in0.0 mm 0.00 in0.0 mm
03:00 PM 68.3°F20.2°C 53.8°F12.1°C 60% 6.5 mph WNW10.5 kmh WNW 8.3 mph13.4 kmh 30.00 in1015.9 mb 0.00 in0.0 mm 0.00 in0.0 mm 0.00 in0.0 mm
03:05 PM 68.4°F20.2°C 54.0°F12.2°C 60% 6.2 mph WNW10.0 kmh WNW 8.3 mph13.4 kmh 30.00 in1015.9 mb 0.00 in0.0 mm 0.00 in0.0 mm 0.00 in0.0 mm
03:10 PM 68.4°F20.2°C 54.0°F12.2°C 60% 5.7 mph WNW9.2 kmh WNW 10.4 mph16.7 kmh 30.03 in1016.9 mb 0.00 in0.0 mm 0.00 in0.0 mm 0.00 in0.0 mm
03:15 PM 68.3°F20.2°C 53.4°F11.9°C 59% 7.2 mph NW11.6 kmh NW 10.7 mph17.2 kmh 30.03 in1016.9 mb 0.00 in0.0 mm 0.00 in0.0 mm 0.00 in0.0 mm
03:20 PM 67.9°F19.9°C 53.0°F11.7°C 59% 8.1 mph NW13.0 kmh NW 10.7 mph17.2 kmh 30.03 in1016.9 mb 0.00 in0.0 mm 0.00 in0.0 mm 0.00 in0.0 mm
03:25 PM 67.9°F19.9°C 53.0°F11.7°C 59% 7.1 mph WNW11.4 kmh WNW 9.8 mph15.8 kmh 30.03 in1016.9 mb 0.00 in0.0 mm 0.00 in0.0 mm 0.00 in0.0 mm
03:30 PM 67.7°F19.8°C 52.9°F11.6°C 59% 5.8 mph WNW9.3 kmh WNW 8.6 mph13.8 kmh 30.03 in1016.9 mb 0.00 in0.0 mm 0.00 in0.0 mm 0.00 in0.0 mm
03:35 PM 67.6°F19.8°C 52.7°F11.5°C 59% 6.3 mph NW10.1 kmh NW 9.2 mph14.8 kmh 30.03 in1016.9 mb 0.00 in0.0 mm 0.00 in0.0 mm 0.00 in0.0 mm
03:40 PM 67.9°F19.9°C 52.6°F11.4°C 58% 7.8 mph NW12.6 kmh NW 14.6 mph23.5 kmh 30.03 in1016.9 mb 0.00 in0.0 mm 0.00 in0.0 mm 0.00 in0.0 mm
03:45 PM 68.4°F20.2°C 53.1°F11.7°C 58% 9.3 mph NW15.0 kmh NW 14.6 mph23.5 kmh 30.03 in1016.9 mb 0.00 in0.0 mm 0.00 in0.0 mm 0.00 in0.0 mm
03:50 PM 68.8°F20.4°C 53.0°F11.7°C 57% 9.9 mph WNW15.9 kmh WNW 14.6 mph23.5 kmh 30.03 in1016.9 mb 0.00 in0.0 mm 0.00 in0.0 mm 0.00 in0.0 mm
03:55 PM 69.0°F20.6°C 52.6°F11.4°C 56% 8.2 mph WNW13.2 kmh WNW 14.6 mph23.5 kmh 30.03 in1016.9 mb 0.00 in0.0 mm 0.00 in0.0 mm 0.00 in0.0 mm
04:00 PM 68.6°F20.3°C 52.3°F11.3°C 56% 8.0 mph WNW12.9 kmh WNW 14.6 mph23.5 kmh 30.03 in1016.9 mb 0.00 in0.0 mm 0.00 in0.0 mm 0.00 in0.0 mm
04:05 PM 68.4°F20.2°C 52.1°F11.2°C 56% 7.7 mph NW12.4 kmh NW 11.9 mph19.2 kmh 30.03 in1016.9 mb 0.00 in0.0 mm 0.00 in0.0 mm 0.00 in0.0 mm
04:10 PM 68.3°F20.2°C 51.5°F10.8°C 55% 6.0 mph NW9.7 kmh NW 10.1 mph16.3 kmh 30.03 in1016.9 mb 0.00 in0.0 mm 0.00 in0.0 mm 0.00 in0.0 mm
04:15 PM 68.3°F20.2°C 51.5°F10.8°C 55% 6.5 mph NW10.5 kmh NW 10.4 mph16.7 kmh 30.03 in1016.9 mb 0.00 in0.0 mm 0.00 in0.0 mm 0.00 in0.0 mm
04:20 PM 69.0°F20.6°C 51.6°F10.9°C 54% 7.9 mph WNW12.7 kmh WNW 10.4 mph16.7 kmh 30.03 in1016.9 mb 0.00 in0.0 mm 0.00 in0.0 mm 0.00 in0.0 mm
04:25 PM 69.2°F20.7°C 51.8°F11.0°C 54% 8.2 mph WNW13.2 kmh WNW 10.4 mph16.7 kmh 30.03 in1016.9 mb 0.00 in0.0 mm 0.00 in0.0 mm 0.00 in0.0 mm
04:30 PM 69.7°F20.9°C 52.3°F11.3°C 54% 6.9 mph WNW11.1 kmh WNW 10.1 mph16.3 kmh 30.03 in1016.9 mb 0.00 in0.0 mm 0.00 in0.0 mm 0.00 in0.0 mm
04:35 PM 69.9°F21.1°C 52.5°F11.4°C 54% 7.3 mph NW11.7 kmh NW 11.3 mph18.2 kmh 30.03 in1016.9 mb 0.00 in0.0 mm 0.00 in0.0 mm 0.00 in0.0 mm
04:40 PM 69.9°F21.1°C 52.0°F11.1°C 53% 8.5 mph WNW13.7 kmh WNW 11.3 mph18.2 kmh 30.03 in1016.9 mb 0.00 in0.0 mm 0.00 in0.0 mm 0.00 in0.0 mm
04:45 PM 69.3°F20.7°C 51.5°F10.8°C 53% 8.7 mph W14.0 kmh W 10.4 mph16.7 kmh 30.03 in1016.9 mb 0.00 in0.0 mm 0.00 in0.0 mm 0.00 in0.0 mm
04:50 PM 69.5°F20.8°C 51.6°F10.9°C 53% 8.3 mph W13.4 kmh W 10.4 mph16.7 kmh 30.03 in1016.9 mb 0.00 in0.0 mm 0.00 in0.0 mm 0.00 in0.0 mm
04:55 PM 69.5°F20.8°C 51.1°F10.6°C 52% 7.6 mph W12.2 kmh W 11.3 mph18.2 kmh 30.03 in1016.9 mb 0.00 in0.0 mm 0.00 in0.0 mm 0.00 in0.0 mm
05:00 PM 69.2°F20.7°C 50.8°F10.4°C 52% 9.3 mph W15.0 kmh W 11.3 mph18.2 kmh 30.03 in1016.9 mb 0.00 in0.0 mm 0.00 in0.0 mm 0.00 in0.0 mm
05:05 PM 69.0°F20.6°C 50.6°F10.3°C 52% 8.7 mph W14.0 kmh W 11.3 mph18.2 kmh 30.03 in1016.9 mb 0.00 in0.0 mm 0.00 in0.0 mm 0.00 in0.0 mm
05:10 PM 69.0°F20.6°C 50.1°F10.1°C 51% 8.6 mph WNW13.8 kmh WNW 12.2 mph19.6 kmh 30.06 in1017.9 mb 0.00 in0.0 mm 0.00 in0.0 mm 0.00 in0.0 mm
05:15 PM 68.4°F20.2°C 50.1°F10.1°C 52% 9.1 mph WNW14.6 kmh WNW 12.2 mph19.6 kmh 30.06 in1017.9 mb 0.00 in0.0 mm 0.00 in0.0 mm 0.00 in0.0 mm
05:20 PM 68.1°F20.1°C 49.3°F9.6°C 51% 9.2 mph WNW14.8 kmh WNW 14.0 mph22.5 kmh 30.06 in1017.9 mb 0.00 in0.0 mm 0.00 in0.0 mm 0.00 in0.0 mm
05:25 PM 67.7°F19.8°C 48.9°F9.4°C 51% 8.0 mph WNW12.9 kmh WNW 14.0 mph22.5 kmh 30.06 in1017.9 mb 0.00 in0.0 mm 0.00 in0.0 mm 0.00 in0.0 mm
05:30 PM 67.4°F19.7°C 48.6°F9.2°C 51% 6.5 mph WNW10.5 kmh WNW 9.5 mph15.3 kmh 30.06 in1017.9 mb 0.00 in0.0 mm 0.00 in0.0 mm 0.00 in0.0 mm
05:35 PM 67.2°F19.6°C 48.4°F9.1°C 51% 6.3 mph WNW10.1 kmh WNW 10.7 mph17.2 kmh 30.06 in1017.9 mb 0.00 in0.0 mm 0.00 in0.0 mm 0.00 in0.0 mm
05:40 PM 67.2°F19.6°C 48.4°F9.1°C 51% 6.4 mph WNW10.3 kmh WNW 11.6 mph18.7 kmh 30.06 in1017.9 mb 0.00 in0.0 mm 0.00 in0.0 mm 0.00 in0.0 mm
05:45 PM 66.8°F19.3°C 48.1°F8.9°C 51% 7.4 mph W11.9 kmh W 11.6 mph18.7 kmh 30.06 in1017.9 mb 0.00 in0.0 mm 0.00 in0.0 mm 0.00 in0.0 mm
05:50 PM 66.5°F19.2°C 48.3°F9.1°C 52% 7.5 mph WNW12.1 kmh WNW 11.3 mph18.2 kmh 30.06 in1017.9 mb 0.00 in0.0 mm 0.00 in0.0 mm 0.00 in0.0 mm
05:55 PM 66.1°F18.9°C 48.0°F8.9°C 52% 7.3 mph NW11.7 kmh NW 11.6 mph18.7 kmh 30.06 in1017.9 mb 0.00 in0.0 mm 0.00 in0.0 mm 0.00 in0.0 mm
06:00 PM 65.4°F18.6°C 47.3°F8.5°C 52% 6.8 mph WNW10.9 kmh WNW 11.6 mph18.7 kmh 30.06 in1017.9 mb 0.00 in0.0 mm 0.00 in0.0 mm 0.00 in0.0 mm
06:05 PM 65.0°F18.3°C 47.0°F8.3°C 52% 6.4 mph WNW10.3 kmh WNW 11.6 mph18.7 kmh 30.06 in1017.9 mb 0.00 in0.0 mm 0.00 in0.0 mm 0.00 in0.0 mm
06:10 PM 64.7°F18.2°C 47.1°F8.4°C 53% 6.9 mph W11.1 kmh W 14.3 mph23.0 kmh 30.06 in1017.9 mb 0.00 in0.0 mm 0.00 in0.0 mm 0.00 in0.0 mm
06:15 PM 64.0°F17.8°C 46.5°F8.1°C 53% 6.7 mph WNW10.8 kmh WNW 14.3 mph23.0 kmh 30.06 in1017.9 mb 0.00 in0.0 mm 0.00 in0.0 mm 0.00 in0.0 mm
06:20 PM 63.6°F17.6°C 46.6°F8.1°C 54% 5.1 mph NW8.2 kmh NW 8.3 mph13.4 kmh 30.06 in1017.9 mb 0.00 in0.0 mm 0.00 in0.0 mm 0.00 in0.0 mm
06:25 PM 63.2°F17.3°C 46.3°F7.9°C 54% 4.8 mph NW7.7 kmh NW 6.0 mph9.7 kmh 30.06 in1017.9 mb 0.00 in0.0 mm 0.00 in0.0 mm 0.00 in0.0 mm
06:30 PM 62.9°F17.2°C 46.0°F7.8°C 54% 6.1 mph NNW9.8 kmh NNW 8.6 mph13.8 kmh 30.06 in1017.9 mb 0.00 in0.0 mm 0.00 in0.0 mm 0.00 in0.0 mm
06:35 PM 62.5°F16.9°C 45.6°F7.6°C 54% 6.6 mph NNW10.6 kmh NNW 8.6 mph13.8 kmh 30.06 in1017.9 mb 0.00 in0.0 mm 0.00 in0.0 mm 0.00 in0.0 mm
06:40 PM 62.3°F16.8°C 45.5°F7.5°C 54% 6.0 mph NW9.7 kmh NW 8.3 mph13.4 kmh 30.09 in1019.0 mb 0.00 in0.0 mm 0.00 in0.0 mm 0.00 in0.0 mm
06:45 PM 62.0°F16.7°C 45.6°F7.6°C 55% 5.0 mph NNW8.0 kmh NNW 7.4 mph11.9 kmh 30.09 in1019.0 mb 0.00 in0.0 mm 0.00 in0.0 mm 0.00 in0.0 mm
06:50 PM 61.8°F16.6°C 45.4°F7.4°C 55% 4.7 mph NW7.6 kmh NW 7.4 mph11.9 kmh 30.09 in1019.0 mb 0.00 in0.0 mm 0.00 in0.0 mm 0.00 in0.0 mm
06:55 PM 61.8°F16.6°C 45.4°F7.4°C 55% 5.7 mph NW9.2 kmh NW 8.3 mph13.4 kmh 30.09 in1019.0 mb 0.00 in0.0 mm 0.00 in0.0 mm 0.00 in0.0 mm
07:00 PM 61.6°F16.4°C 45.3°F7.4°C 55% 5.5 mph NW8.9 kmh NW 8.3 mph13.4 kmh 30.09 in1019.0 mb 0.00 in0.0 mm 0.00 in0.0 mm 0.00 in0.0 mm
07:05 PM 61.4°F16.3°C 45.1°F7.3°C 55% 6.1 mph NW9.8 kmh NW 11.3 mph18.2 kmh 30.09 in1019.0 mb 0.00 in0.0 mm 0.00 in0.0 mm 0.00 in0.0 mm
07:10 PM 61.4°F16.3°C 45.1°F7.3°C 55% 7.4 mph NW11.9 kmh NW 13.7 mph22.0 kmh 30.09 in1019.0 mb 0.00 in0.0 mm 0.00 in0.0 mm 0.00 in0.0 mm
07:15 PM 61.3°F16.3°C 44.9°F7.2°C 55% 8.0 mph NNW12.9 kmh NNW 13.7 mph22.0 kmh 30.09 in1019.0 mb 0.00 in0.0 mm 0.00 in0.0 mm 0.00 in0.0 mm
07:20 PM 60.9°F16.1°C 45.1°F7.3°C 56% 7.7 mph NNW12.4 kmh NNW 11.3 mph18.2 kmh 30.09 in1019.0 mb 0.00 in0.0 mm 0.00 in0.0 mm 0.00 in0.0 mm
07:25 PM 60.7°F15.9°C 44.9°F7.2°C 56% 6.9 mph NW11.1 kmh NW 8.6 mph13.8 kmh 30.09 in1019.0 mb 0.00 in0.0 mm 0.00 in0.0 mm 0.00 in0.0 mm
07:30 PM 60.3°F15.7°C 44.6°F7.0°C 56% 6.5 mph NNW10.5 kmh NNW 8.6 mph13.8 kmh 30.09 in1019.0 mb 0.00 in0.0 mm 0.00 in0.0 mm 0.00 in0.0 mm
07:35 PM 60.2°F15.7°C 44.4°F6.9°C 56% 5.5 mph N8.9 kmh N 8.6 mph13.8 kmh 30.09 in1019.0 mb 0.00 in0.0 mm 0.00 in0.0 mm 0.00 in0.0 mm
07:40 PM 59.8°F15.4°C 44.5°F6.9°C 57% 6.1 mph NNW9.8 kmh NNW 10.7 mph17.2 kmh 30.12 in1020.0 mb 0.00 in0.0 mm 0.00 in0.0 mm 0.00 in0.0 mm
07:45 PM 59.6°F15.3°C 44.4°F6.9°C 57% 6.1 mph NNW9.8 kmh NNW 10.7 mph17.2 kmh 30.12 in1020.0 mb 0.00 in0.0 mm 0.00 in0.0 mm 0.00 in0.0 mm
07:50 PM 59.6°F15.3°C 44.4°F6.9°C 57% 5.9 mph N9.5 kmh N 9.8 mph15.8 kmh 30.12 in1020.0 mb 0.00 in0.0 mm 0.00 in0.0 mm 0.00 in0.0 mm
07:55 PM 59.3°F15.2°C 44.5°F6.9°C 58% 6.1 mph N9.8 kmh N 9.8 mph15.8 kmh 30.12 in1020.0 mb 0.00 in0.0 mm 0.00 in0.0 mm 0.00 in0.0 mm
08:00 PM 59.1°F15.1°C 44.3°F6.8°C 58% 4.8 mph N7.7 kmh N 8.0 mph12.9 kmh 30.12 in1020.0 mb 0.00 in0.0 mm 0.00 in0.0 mm 0.00 in0.0 mm
08:05 PM 58.9°F14.9°C 44.6°F7.0°C 59% 6.0 mph NNW9.7 kmh NNW 11.3 mph18.2 kmh 30.12 in1020.0 mb 0.00 in0.0 mm 0.00 in0.0 mm 0.00 in0.0 mm
08:10 PM 58.7°F14.8°C 44.4°F6.9°C 59% 6.4 mph NW10.3 kmh NW 11.3 mph18.2 kmh 30.12 in1020.0 mb 0.00 in0.0 mm 0.00 in0.0 mm 0.00 in0.0 mm
08:15 PM 58.7°F14.8°C 44.4°F6.9°C 59% 5.5 mph NNW8.9 kmh NNW 8.0 mph12.9 kmh 30.12 in1020.0 mb 0.00 in0.0 mm 0.00 in0.0 mm 0.00 in0.0 mm
08:20 PM 58.5°F14.7°C 44.3°F6.8°C 59% 5.2 mph NNW8.4 kmh NNW 6.5 mph10.5 kmh 30.12 in1020.0 mb 0.00 in0.0 mm 0.00 in0.0 mm 0.00 in0.0 mm
08:25 PM 58.4°F14.7°C 44.5°F6.9°C 60% 5.6 mph NW9.0 kmh NW 7.4 mph11.9 kmh 30.12 in1020.0 mb 0.00 in0.0 mm 0.00 in0.0 mm 0.00 in0.0 mm
08:30 PM 58.2°F14.6°C 44.4°F6.9°C 60% 6.0 mph NW9.7 kmh NW 8.3 mph13.4 kmh 30.12 in1020.0 mb 0.00 in0.0 mm 0.00 in0.0 mm 0.00 in0.0 mm
08:35 PM 58.2°F14.6°C 44.4°F6.9°C 60% 6.2 mph NW10.0 kmh NW 8.3 mph13.4 kmh 30.12 in1020.0 mb 0.00 in0.0 mm 0.00 in0.0 mm 0.00 in0.0 mm
08:40 PM 58.2°F14.6°C 44.4°F6.9°C 60% 6.3 mph NNW10.1 kmh NNW 8.3 mph13.4 kmh 30.12 in1020.0 mb 0.00 in0.0 mm 0.00 in0.0 mm 0.00 in0.0 mm
08:45 PM 58.0°F14.4°C 44.2°F6.8°C 60% 6.0 mph NNW9.7 kmh NNW 9.5 mph15.3 kmh 30.12 in1020.0 mb 0.00 in0.0 mm 0.00 in0.0 mm 0.00 in0.0 mm
08:50 PM 58.0°F14.4°C 44.2°F6.8°C 60% 5.2 mph NNW8.4 kmh NNW 9.5 mph15.3 kmh 30.12 in1020.0 mb 0.00 in0.0 mm 0.00 in0.0 mm 0.00 in0.0 mm
08:55 PM 57.7°F14.3°C 44.3°F6.8°C 61% 4.7 mph NNW7.6 kmh NNW 7.7 mph12.4 kmh 30.15 in1021.0 mb 0.00 in0.0 mm 0.00 in0.0 mm 0.00 in0.0 mm
09:00 PM 57.7°F14.3°C 44.3°F6.8°C 61% 5.4 mph NNW8.7 kmh NNW 8.6 mph13.8 kmh 30.15 in1021.0 mb 0.00 in0.0 mm 0.00 in0.0 mm 0.00 in0.0 mm
09:05 PM 57.7°F14.3°C 44.3°F6.8°C 61% 5.0 mph NNW8.0 kmh NNW 8.6 mph13.8 kmh 30.15 in1021.0 mb 0.00 in0.0 mm 0.00 in0.0 mm 0.00 in0.0 mm
09:10 PM 57.7°F14.3°C 44.7°F7.1°C 62% 4.4 mph NNW7.1 kmh NNW 8.0 mph12.9 kmh 30.15 in1021.0 mb 0.00 in0.0 mm 0.00 in0.0 mm 0.00 in0.0 mm
09:15 PM 57.7°F14.3°C 44.7°F7.1°C 62% 4.6 mph N7.4 kmh N 6.5 mph10.5 kmh 30.15 in1021.0 mb 0.00 in0.0 mm 0.00 in0.0 mm 0.00 in0.0 mm
09:20 PM 57.7°F14.3°C 44.7°F7.1°C 62% 4.6 mph N7.4 kmh N 5.7 mph9.2 kmh 30.15 in1021.0 mb 0.00 in0.0 mm 0.00 in0.0 mm 0.00 in0.0 mm
09:25 PM 57.7°F14.3°C 44.7°F7.1°C 62% 4.4 mph NNW7.1 kmh NNW 7.4 mph11.9 kmh 30.15 in1021.0 mb 0.00 in0.0 mm 0.00 in0.0 mm 0.00 in0.0 mm
09:30 PM 57.5°F14.2°C 44.5°F6.9°C 62% 4.4 mph NW7.1 kmh NW 8.0 mph12.9 kmh 30.15 in1021.0 mb 0.00 in0.0 mm 0.00 in0.0 mm 0.00 in0.0 mm
09:35 PM 57.5°F14.2°C 44.5°F6.9°C 62% 4.3 mph N6.9 kmh N 8.0 mph12.9 kmh 30.15 in1021.0 mb 0.00 in0.0 mm 0.00 in0.0 mm 0.00 in0.0 mm
09:40 PM 57.5°F14.2°C 44.5°F6.9°C 62% 4.1 mph N6.6 kmh N 6.5 mph10.5 kmh 30.15 in1021.0 mb 0.00 in0.0 mm 0.00 in0.0 mm 0.00 in0.0 mm
09:45 PM 57.3°F14.1°C 44.4°F6.9°C 62% 2.7 mph NNE4.3 kmh NNE 6.2 mph10.0 kmh 30.15 in1021.0 mb 0.00 in0.0 mm 0.00 in0.0 mm 0.00 in0.0 mm
09:50 PM 57.3°F14.1°C 44.4°F6.9°C 62% 1.5 mph NE2.4 kmh NE 3.6 mph5.8 kmh 30.15 in1021.0 mb 0.00 in0.0 mm 0.00 in0.0 mm 0.00 in0.0 mm
09:55 PM 56.9°F13.8°C 44.0°F6.7°C 62% 1.7 mph N2.7 kmh N 3.6 mph5.8 kmh 30.15 in1021.0 mb 0.00 in0.0 mm 0.00 in0.0 mm 0.00 in0.0 mm
10:00 PM 56.9°F13.8°C 44.0°F6.7°C 62% 1.8 mph N2.9 kmh N 3.6 mph5.8 kmh 30.15 in1021.0 mb 0.00 in0.0 mm 0.00 in0.0 mm 0.00 in0.0 mm
10:05 PM 56.8°F13.8°C 43.9°F6.6°C 62% 1.8 mph N2.9 kmh N 3.3 mph5.3 kmh 30.15 in1021.0 mb 0.00 in0.0 mm 0.00 in0.0 mm 0.00 in0.0 mm
10:10 PM 56.6°F13.7°C 43.7°F6.5°C 62% 1.9 mph NNE3.1 kmh NNE 3.3 mph5.3 kmh 30.15 in1021.0 mb 0.00 in0.0 mm 0.00 in0.0 mm 0.00 in0.0 mm
10:15 PM 56.4°F13.6°C 43.9°F6.6°C 63% 2.4 mph NNE3.9 kmh NNE 4.2 mph6.8 kmh 30.15 in1021.0 mb 0.00 in0.0 mm 0.00 in0.0 mm 0.00 in0.0 mm
10:20 PM 56.2°F13.4°C 43.8°F6.6°C 63% 2.0 mph NNE3.2 kmh NNE 4.2 mph6.8 kmh 30.15 in1021.0 mb 0.00 in0.0 mm 0.00 in0.0 mm 0.00 in0.0 mm
10:25 PM 55.8°F13.2°C 43.4°F6.3°C 63% 1.3 mph NNE2.1 kmh NNE 2.7 mph4.3 kmh 30.15 in1021.0 mb 0.00 in0.0 mm 0.00 in0.0 mm 0.00 in0.0 mm
10:30 PM 55.8°F13.2°C 43.4°F6.3°C 63% 1.7 mph NE2.7 kmh NE 3.6 mph5.8 kmh 30.15 in1021.0 mb 0.00 in0.0 mm 0.00 in0.0 mm 0.00 in0.0 mm
10:35 PM 55.7°F13.2°C 43.3°F6.3°C 63% 1.5 mph NE2.4 kmh NE 3.9 mph6.3 kmh 30.15 in1021.0 mb 0.00 in0.0 mm 0.00 in0.0 mm 0.00 in0.0 mm
10:40 PM 55.3°F12.9°C 42.9°F6.1°C 63% 1.4 mph NNE2.3 kmh NNE 3.9 mph6.3 kmh 30.15 in1021.0 mb 0.00 in0.0 mm 0.00 in0.0 mm 0.00 in0.0 mm
10:45 PM 55.1°F12.8°C 42.8°F6.0°C 63% 2.1 mph NNE3.4 kmh NNE 4.5 mph7.2 kmh 30.15 in1021.0 mb 0.00 in0.0 mm 0.00 in0.0 mm 0.00 in0.0 mm
10:50 PM 55.0°F12.8°C 42.6°F5.9°C 63% 2.6 mph NNE4.2 kmh NNE 4.5 mph7.2 kmh 30.15 in1021.0 mb 0.00 in0.0 mm 0.00 in0.0 mm 0.00 in0.0 mm
10:55 PM 54.8°F12.7°C 42.4°F5.8°C 63% 2.8 mph NNE4.5 kmh NNE 6.5 mph10.5 kmh 30.15 in1021.0 mb 0.00 in0.0 mm 0.00 in0.0 mm 0.00 in0.0 mm
11:00 PM 54.8°F12.7°C 42.4°F5.8°C 63% 3.1 mph NNE5.0 kmh NNE 6.5 mph10.5 kmh 30.15 in1021.0 mb 0.00 in0.0 mm 0.00 in0.0 mm 0.00 in0.0 mm
11:05 PM 54.6°F12.6°C 42.2°F5.7°C 63% 3.1 mph NE5.0 kmh NE 5.4 mph8.7 kmh 30.15 in1021.0 mb 0.00 in0.0 mm 0.00 in0.0 mm 0.00 in0.0 mm
11:10 PM 54.6°F12.6°C 42.2°F5.7°C 63% 2.5 mph NNE4.0 kmh NNE 5.4 mph8.7 kmh 30.15 in1021.0 mb 0.00 in0.0 mm 0.00 in0.0 mm 0.00 in0.0 mm
11:15 PM 54.4°F12.4°C 42.1°F5.6°C 63% 2.2 mph NNE3.5 kmh NNE 5.4 mph8.7 kmh 30.15 in1021.0 mb 0.00 in0.0 mm 0.00 in0.0 mm 0.00 in0.0 mm
11:20 PM 54.2°F12.3°C 41.9°F5.5°C 63% 2.2 mph NE3.5 kmh NE 5.4 mph8.7 kmh 30.15 in1021.0 mb 0.00 in0.0 mm 0.00 in0.0 mm 0.00 in0.0 mm
11:25 PM 54.0°F12.2°C 42.1°F5.6°C 64% 2.1 mph ENE3.4 kmh ENE 3.3 mph5.3 kmh 30.15 in1021.0 mb 0.00 in0.0 mm 0.00 in0.0 mm 0.00 in0.0 mm
11:30 PM 53.9°F12.2°C 42.0°F5.6°C 64% 1.8 mph ENE2.9 kmh ENE 3.3 mph5.3 kmh 30.15 in1021.0 mb 0.00 in0.0 mm 0.00 in0.0 mm 0.00 in0.0 mm
11:35 PM 53.5°F11.9°C 41.6°F5.3°C 64% 0.5 mph NE0.8 kmh NE 1.8 mph2.9 kmh 30.15 in1021.0 mb 0.00 in0.0 mm 0.00 in0.0 mm 0.00 in0.0 mm
11:40 PM 53.2°F11.8°C 41.3°F5.2°C 64% 0.1 mph NW0.2 kmh NW 1.5 mph2.4 kmh 30.15 in1021.0 mb 0.00 in0.0 mm 0.00 in0.0 mm 0.00 in0.0 mm
11:45 PM 53.0°F11.7°C 41.1°F5.1°C 64% 0.2 mph NW0.3 kmh NW 1.5 mph2.4 kmh 30.15 in1021.0 mb 0.00 in0.0 mm 0.00 in0.0 mm 0.00 in0.0 mm
11:50 PM 52.6°F11.4°C 41.2°F5.1°C 65% 0.6 mph NNW1.0 kmh NNW 2.1 mph3.4 kmh 30.15 in1021.0 mb 0.00 in0.0 mm 0.00 in0.0 mm 0.00 in0.0 mm
11:55 PM 52.3°F11.3°C 41.2°F5.1°C 66% 0.6 mph N1.0 kmh N 2.1 mph3.4 kmh 30.15 in1021.0 mb 0.00 in0.0 mm 0.00 in0.0 mm 0.00 in0.0 mm